Time;durP1;ratioP1;P1;durP2;ratioP2;P2;SDS_P1;SDS_P2;PMS_P1;PMS_P2;Temp;Humidity;BMP_temperature;BMP_pressure;BME280_temperature;BME280_humidity;BME280_pressure;Samples;Min_cycle;Max_cycle;Signal;HPM_P1;HPM_P2
2022/09/05 00:02:20;;;;;;;13.95;8.60;;;;;;;13.27;48.43;100217.41;1706174;83;21037;-44
2022/09/05 00:04:59;;;;;;;17.95;9.03;;;;;;;13.16;48.75;100220.48;1720196;83;21029;-43
2022/09/05 00:07:32;;;;;;;11.95;7.08;;;;;;;13.10;49.06;100213.70;1720933;83;21285;-44
2022/09/05 00:10:36;;;;;;;15.55;8.60;;;;;;;13.06;49.34;100210.91;1720422;83;21041;-44
2022/09/05 00:13:11;;;;;;;17.40;9.45;;;;;;;13.06;49.62;100209.55;1707253;83;20961;-44
2022/09/05 00:16:02;;;;;;;21.15;9.38;;;;;;;13.05;49.80;100213.41;1686865;85;20993;-44
2022/09/05 00:18:47;;;;;;;15.68;8.98;;;;;;;12.99;50.01;100210.73;1684286;85;21451;-44
2022/09/05 00:21:47;;;;;;;16.52;8.53;;;;;;;12.92;50.17;100209.22;1686879;85;21197;-44
2022/09/05 00:24:30;;;;;;;17.70;9.35;;;;;;;12.84;50.55;100207.46;1686717;85;24782;-44
2022/09/05 00:27:36;;;;;;;13.93;8.20;;;;;;;12.79;50.78;100209.09;1686521;84;20958;-44
2022/09/05 00:30:15;;;;;;;15.15;9.05;;;;;;;12.76;51.03;100205.73;1630163;88;21691;-44
2022/09/05 00:33:10;;;;;;;17.47;8.93;;;;;;;12.72;50.79;100200.78;1630698;88;21084;-44
2022/09/05 00:36:11;;;;;;;14.38;8.63;;;;;;;12.72;50.92;100196.70;1673679;85;21547;-44
2022/09/05 00:38:40;;;;;;;13.20;8.08;;;;;;;12.64;51.13;100192.44;1686780;85;21631;-43
2022/09/05 00:41:11;;;;;;;13.20;7.83;;;;;;;12.58;51.20;100183.55;1687023;85;21521;-44
2022/09/05 00:43:45;;;;;;;15.30;8.30;;;;;;;12.59;51.19;100183.18;1686818;85;21097;-43
2022/09/05 00:46:22;;;;;;;11.48;7.28;;;;;;;12.62;51.21;100189.86;1666500;85;21116;-43
2022/09/05 00:48:57;;;;;;;12.53;7.22;;;;;;;12.61;51.17;100182.27;1686712;85;22017;-44
2022/09/05 00:51:50;;;;;;;11.78;7.35;;;;;;;12.60;50.86;100183.41;1686934;85;21602;-43
2022/09/05 00:54:39;;;;;;;12.50;6.60;;;;;;;12.61;51.04;100178.19;1647831;85;21077;-44
2022/09/05 00:58:00;;;;;;;10.82;6.67;;;;;;;12.62;51.16;100177.06;1687064;85;21056;-44
2022/09/05 01:00:51;;;;;;;10.93;6.92;;;;;;;12.61;51.07;100175.47;1686898;85;21124;-43
2022/09/05 01:03:55;;;;;;;13.85;6.80;;;;;;;12.62;51.22;100171.61;1687091;85;21254;-43
2022/09/05 01:06:49;;;;;;;14.18;6.92;;;;;;;12.66;51.21;100164.89;1687044;85;21107;-44
2022/09/05 01:09:28;;;;;;;10.23;6.05;;;;;;;12.69;51.33;100174.26;1687082;85;21061;-44
2022/09/05 01:12:00;;;;;;;10.90;6.58;;;;;;;12.71;51.04;100170.62;1687034;85;21073;-44
2022/09/05 01:14:51;;;;;;;11.45;6.10;;;;;;;12.68;50.99;100163.19;1686782;83;21068;-44
2022/09/05 01:17:42;;;;;;;9.48;6.42;;;;;;;12.67;50.89;100167.05;1684382;85;21206;-43
2022/09/05 01:20:37;;;;;;;11.85;5.87;;;;;;;12.65;50.98;100164.66;1686753;85;20949;-44
2022/09/05 01:23:31;;;;;;;10.68;6.37;;;;;;;12.65;51.11;100164.66;1686759;85;21033;-44
2022/09/05 01:26:06;;;;;;;11.57;6.03;;;;;;;12.64;51.20;100155.71;1687036;85;21555;-44
2022/09/05 01:28:56;;;;;;;12.70;6.42;;;;;;;12.66;51.17;100156.73;1686915;85;21497;-44
2022/09/05 01:31:43;;;;;;;14.40;6.85;;;;;;;12.68;51.11;100153.66;1686906;85;22050;-44
2022/09/05 01:34:42;;;;;;;11.15;6.67;;;;;;;12.69;50.92;100156.58;1686836;85;20993;-43
2022/09/05 01:37:21;;;;;;;10.23;6.17;;;;;;;12.71;51.02;100152.95;1686076;85;21018;-43
2022/09/05 01:40:38;;;;;;;11.47;6.30;;;;;;;12.70;51.14;100154.88;1686185;85;21037;-44
2022/09/05 01:43:35;;;;;;;11.33;6.08;;;;;;;12.74;51.17;100156.30;1686863;85;21049;-44
2022/09/05 01:46:56;;;;;;;8.95;6.15;;;;;;;12.74;51.04;100158.46;1685900;85;21258;-44
2022/09/05 01:49:47;;;;;;;10.30;6.20;;;;;;;12.74;50.67;100152.23;1686820;85;20989;-43
2022/09/05 01:53:10;;;;;;;9.35;6.40;;;;;;;12.74;50.48;100156.30;1686362;85;21009;-43
2022/09/05 01:55:52;;;;;;;11.65;6.08;;;;;;;12.75;50.03;100156.53;1686832;85;20962;-44
2022/09/05 01:58:57;;;;;;;11.08;5.80;;;;;;;12.81;50.25;100155.91;1681417;85;21097;-43
2022/09/05 02:01:53;;;;;;;10.00;6.25;;;;;;;12.90;50.97;100162.52;1687107;85;21214;-44
2022/09/05 02:04:58;;;;;;;12.00;7.00;;;;;;;12.96;51.67;100159.73;1686998;85;20989;-43
2022/09/05 02:08:04;;;;;;;11.68;6.30;;;;;;;13.01;51.17;100161.62;1682293;85;21044;-43
2022/09/05 02:10:56;;;;;;;11.38;6.17;;;;;;;13.10;51.95;100160.05;1687090;85;21009;-44
2022/09/05 02:13:35;;;;;;;10.98;6.47;;;;;;;13.18;51.19;100155.55;1687007;85;21034;-43
2022/09/05 02:16:38;;;;;;;11.53;6.62;;;;;;;13.25;51.98;100148.34;1689765;83;21235;-44
2022/09/05 02:19:28;;;;;;;9.45;6.10;;;;;;;13.29;52.01;100156.00;1696945;84;20989;-44
2022/09/05 02:22:10;;;;;;;9.43;6.05;;;;;;;13.33;51.75;100151.41;1618051;87;21033;-44
2022/09/05 02:24:47;;;;;;;10.53;5.92;;;;;;;13.36;51.93;100145.23;1686870;84;21048;-44
2022/09/05 02:27:34;;;;;;;9.88;6.15;;;;;;;13.40;51.46;100146.13;1695968;84;21117;-44
2022/09/05 02:30:15;;;;;;;10.55;6.42;;;;;;;13.45;51.48;100146.41;1695951;84;21306;-44
2022/09/05 02:33:26;;;;;;;10.55;6.12;;;;;;;13.45;51.48;100154.01;1690685;84;21563;-44
2022/09/05 02:36:15;;;;;;;9.93;5.90;;;;;;;13.47;51.89;100159.87;1697049;84;21072;-43
2022/09/05 02:38:56;;;;;;;11.70;6.70;;;;;;;13.46;53.13;100158.28;1676370;84;21027;-43
2022/09/05 02:41:31;;;;;;;15.03;6.53;;;;;;;13.49;52.57;100154.86;1663929;86;21076;-44
2022/09/05 02:44:16;;;;;;;10.05;6.20;;;;;;;13.52;52.00;100147.10;1663668;86;21139;-43
2022/09/05 02:47:09;;;;;;;11.95;6.42;;;;;;;13.53;51.99;100149.47;1649588;86;20976;-44
2022/09/05 02:49:48;;;;;;;11.90;6.50;;;;;;;13.57;52.16;100144.88;1662386;85;21108;-43
2022/09/05 02:52:18;;;;;;;10.95;6.83;;;;;;;13.61;51.94;100149.02;1663940;86;21591;-44
2022/09/05 02:54:47;;;;;;;11.38;6.42;;;;;;;13.65;51.58;100151.27;1635616;86;21107;-44
2022/09/05 02:57:34;;;;;;;13.05;6.03;;;;;;;13.68;51.58;100145.87;1664052;86;21534;-44
2022/09/05 03:00:18;;;;;;;11.60;6.97;;;;;;;13.72;51.28;100154.11;1663717;86;21029;-44
2022/09/05 03:03:06;;;;;;;12.98;6.25;;;;;;;13.74;50.97;100151.25;1663863;86;21550;-43
2022/09/05 03:05:39;;;;;;;11.65;6.45;;;;;;;13.77;51.26;100148.37;1664103;86;21044;-44
2022/09/05 03:08:33;;;;;;;12.60;6.47;;;;;;;13.78;50.90;100152.11;1648534;86;21051;-44
2022/09/05 03:11:19;;;;;;;12.37;7.10;;;;;;;13.79;50.84;100142.00;1636794;87;21140;-43
2022/09/05 03:14:19;;;;;;;16.37;7.15;;;;;;;13.79;51.02;100146.08;1618853;87;21076;-44
2022/09/05 03:17:10;;;;;;;11.48;6.90;;;;;;;13.77;51.14;100148.37;1654013;85;21543;-44
2022/09/05 03:20:31;;;;;;;9.65;6.05;;;;;;;13.77;51.57;100144.28;1678534;85;21088;-43
2022/09/05 03:23:25;;;;;;;10.90;6.53;;;;;;;13.74;52.27;100145.80;1713281;83;21084;-44
2022/09/05 03:29:05;;;;;;;11.68;6.25;;;;;;;13.65;52.60;100147.19;1774275;79;22261;-44
2022/09/05 03:32:05;;;;;;;13.20;6.50;;;;;;;13.56;53.26;100150.68;1737915;82;21022;-43
2022/09/05 03:34:50;;;;;;;12.28;6.28;;;;;;;13.60;53.24;100144.17;1730214;82;21931;-44
2022/09/05 03:37:43;;;;;;;12.55;6.53;;;;;;;13.58;52.40;100149.75;1738597;82;20963;-43
2022/09/05 03:40:25;;;;;;;11.50;6.70;;;;;;;13.55;52.65;100146.41;1738559;82;20923;-44
2022/09/05 03:43:32;;;;;;;13.45;6.40;;;;;;;13.51;51.85;100151.76;1738605;82;20978;-44
2022/09/05 03:46:11;;;;;;;11.22;6.67;;;;;;;13.53;52.37;100159.58;1738529;82;21025;-44
2022/09/05 03:49:04;;;;;;;14.75;7.03;;;;;;;13.51;52.09;100151.00;1738613;82;21134;-44
2022/09/05 03:52:12;;;;;;;11.15;6.12;;;;;;;13.49;52.09;100156.22;1738555;82;20942;-43
2022/09/05 03:55:27;;;;;;;11.57;6.25;;;;;;;13.45;51.90;100148.56;1738524;82;20927;-44
2022/09/05 03:58:34;;;;;;;9.70;6.65;;;;;;;13.39;51.93;100156.00;1738694;82;21093;-44
2022/09/05 04:01:22;;;;;;;11.20;5.87;;;;;;;13.39;52.80;100151.35;1738811;82;21110;-44
2022/09/05 04:03:56;;;;;;;9.95;7.00;;;;;;;13.42;53.00;100151.98;1738234;82;21892;-44
2022/09/05 04:06:27;;;;;;;10.65;6.35;;;;;;;13.46;53.08;100152.05;1738512;82;20974;-44
2022/09/05 04:09:18;;;;;;;10.35;6.40;;;;;;;13.47;52.32;100148.97;1738712;82;21542;-44
2022/09/05 04:11:47;;;;;;;;;;;;;;;13.50;51.94;100150.20;1741239;82;21093;-44
2022/09/05 04:14:43;;;;;;;12.33;7.53;;;;;;;13.49;51.62;100149.41;1738626;82;20185;-44
2022/09/05 04:17:31;;;;;;;9.50;6.40;;;;;;;13.38;51.42;100149.77;1727005;82;23160;-44
2022/09/05 04:20:11;;;;;;;10.03;6.62;;;;;;;13.30;52.27;100151.34;1735706;82;21009;-44
2022/09/05 04:23:22;;;;;;;12.28;6.60;;;;;;;13.18;52.78;100149.55;1703010;82;21535;-44
2022/09/05 04:26:05;;;;;;;12.33;7.15;;;;;;;13.08;52.98;100153.59;1738587;82;21524;-43
2022/09/05 04:29:04;;;;;;;12.23;7.08;;;;;;;13.02;53.26;100155.60;1729326;82;21039;-44
2022/09/05 04:31:49;;;;;;;10.78;7.00;;;;;;;12.99;53.54;100160.38;1728220;83;21260;-43
2022/09/05 04:34:30;;;;;;;12.35;7.15;;;;;;;12.93;53.73;100148.19;1678243;82;20959;-44
2022/09/05 04:37:04;;;;;;;10.82;6.78;;;;;;;12.93;53.78;100157.71;1728103;83;20938;-43
2022/09/05 04:39:32;;;;;;;13.22;7.12;;;;;;;12.93;53.95;100157.14;1727494;83;21646;-44
2022/09/05 04:42:16;;;;;;;13.93;7.08;;;;;;;12.92;53.69;100161.60;1727606;83;21035;-44
2022/09/05 04:44:58;;;;;;;14.95;6.78;;;;;;;12.92;53.77;100154.80;1726692;82;23235;-44
2022/09/05 04:47:41;;;;;;;17.60;7.10;;;;;;;12.87;54.03;100154.50;1727414;82;21472;-44
2022/09/05 04:50:15;;;;;;;10.80;7.15;;;;;;;12.91;54.31;100155.93;1727078;82;20959;-44
2022/09/05 04:53:16;;;;;;;15.15;7.78;;;;;;;12.93;54.51;100154.98;1718012;82;21017;-44
2022/09/05 04:55:48;;;;;;;12.73;7.62;;;;;;;12.95;54.88;100149.42;1713414;83;21045;-43
2022/09/05 04:58:32;;;;;;;13.48;7.78;;;;;;;12.99;55.26;100154.36;1713058;83;21138;-44
2022/09/05 05:01:14;;;;;;;13.58;7.53;;;;;;;13.03;55.60;100155.80;1712907;83;20913;-44
2022/09/05 05:03:41;;;;;;;15.60;8.15;;;;;;;13.07;56.04;100151.21;1713267;83;20969;-44
2022/09/05 05:06:30;;;;;;;14.63;7.92;;;;;;;13.10;55.75;100149.16;1713037;83;21012;-44
2022/09/05 05:09:17;;;;;;;13.70;7.60;;;;;;;13.14;55.84;100143.23;1713482;83;21025;-43
2022/09/05 05:11:58;;;;;;;13.25;7.75;;;;;;;13.21;55.88;100147.48;1698842;83;23129;-44
2022/09/05 05:14:41;;;;;;;14.83;7.72;;;;;;;13.21;55.60;100146.69;1712820;83;20984;-43
2022/09/05 05:17:37;;;;;;;14.15;8.03;;;;;;;13.21;55.83;100147.48;1712884;83;20985;-43
2022/09/05 05:20:16;;;;;;;15.98;8.58;;;;;;;13.27;56.11;100152.84;1712707;83;21456;-43
2022/09/05 05:22:48;;;;;;;15.85;8.93;;;;;;;13.28;55.94;100153.06;1711711;83;21017;-43
2022/09/05 05:25:16;;;;;;;13.83;7.90;;;;;;;13.29;56.24;100148.41;1711650;83;23134;-43
2022/09/05 05:27:50;;;;;;;12.15;8.10;;;;;;;13.33;55.83;100143.81;1710522;83;21081;-44
2022/09/05 05:30:24;;;;;;;12.63;8.18;;;;;;;13.41;55.44;100149.61;1707190;83;21008;-44
2022/09/05 05:32:52;;;;;;;12.88;8.90;;;;;;;13.48;55.24;100153.85;1707627;83;21555;-43
2022/09/05 05:35:24;;;;;;;14.13;8.38;;;;;;;13.55;55.32;100143.67;1707375;84;20957;-43
2022/09/05 05:38:08;;;;;;;16.27;9.70;;;;;;;13.60;55.43;100150.20;1731121;82;21830;-44
2022/09/05 05:40:35;;;;;;;14.23;8.18;;;;;;;13.61;55.12;100150.39;1742900;81;20961;-44
2022/09/05 05:43:15;;;;;;;14.13;8.53;;;;;;;13.58;55.16;100148.39;1742962;81;20969;-44
2022/09/05 05:45:42;;;;;;;14.00;8.60;;;;;;;13.62;55.06;100160.14;1705680;84;21567;-44
2022/09/05 05:48:21;;;;;;;16.32;8.38;;;;;;;13.68;54.95;100160.08;1742889;81;21080;-44
2022/09/05 05:51:05;;;;;;;15.60;8.18;;;;;;;13.76;54.35;100160.41;1742854;81;22126;-44
2022/09/05 05:54:26;;;;;;;11.00;7.22;;;;;;;13.84;53.82;100154.75;1707054;83;20981;-44
2022/09/05 05:57:22;;;;;;;11.63;6.55;;;;;;;13.96;54.22;100155.14;1707732;84;21016;-44
2022/09/05 06:00:03;;;;;;;10.90;6.55;;;;;;;14.13;52.45;100143.77;1676631;84;21097;-44
2022/09/05 06:02:56;;;;;;;6.78;5.60;;;;;;;14.35;52.76;100167.52;1706411;84;21061;-44
2022/09/05 06:05:58;;;;;;;10.10;5.47;;;;;;;14.58;52.50;100169.45;1707297;84;21145;-44
2022/09/05 06:08:33;;;;;;;9.88;5.30;;;;;;;14.80;51.20;100154.98;1742952;82;21532;-43
2022/09/05 06:11:46;;;;;;;9.45;5.50;;;;;;;14.98;50.91;100166.94;1707553;83;21028;-44
2022/09/05 06:14:47;;;;;;;10.82;5.92;;;;;;;15.08;50.69;100174.49;1742856;82;21368;-44
2022/09/05 06:17:38;;;;;;;10.68;6.03;;;;;;;15.17;50.57;100181.83;1707259;83;26167;-43
2022/09/05 06:20:38;;;;;;;11.43;6.28;;;;;;;14.68;49.92;100095.14;1707372;84;22048;-44
2022/09/05 06:23:47;;;;;;;10.10;6.33;;;;;;;15.31;49.74;100192.16;1707471;84;21092;-44
2022/09/05 06:26:48;;;;;;;11.15;6.65;;;;;;;15.36;50.63;100189.09;1701926;82;21025;-44
2022/09/05 06:29:35;;;;;;;13.48;6.80;;;;;;;15.43;50.20;100196.61;1681534;84;21129;-44
2022/09/05 06:32:27;;;;;;;16.25;7.25;;;;;;;15.51;49.99;100200.45;1681707;85;21057;-44
2022/09/05 06:35:35;;;;;;;13.72;7.95;;;;;;;15.58;50.01;100208.75;1681698;85;21285;-44
2022/09/05 06:38:14;;;;;;;17.67;7.62;;;;;;;15.61;49.57;100209.93;1681537;85;21045;-43
2022/09/05 06:41:24;;;;;;;12.40;7.03;;;;;;;15.60;49.69;100222.02;1681122;85;21006;-44
2022/09/05 06:44:39;;;;;;;13.25;7.95;;;;;;;15.64;49.94;100215.44;1681929;85;21397;-44
2022/09/05 06:47:17;;;;;;;16.77;8.58;;;;;;;15.73;50.23;100227.47;1699263;83;21033;-43
2022/09/05 06:50:06;;;;;;;14.95;8.88;;;;;;;15.82;49.71;100234.02;1694627;84;21206;-44
2022/09/05 06:53:20;;;;;;;17.65;8.90;;;;;;;15.85;49.68;100234.05;1694635;84;21060;-44
2022/09/05 06:56:09;;;;;;;15.75;9.53;;;;;;;15.85;50.07;100240.87;1694228;83;21024;-44
2022/09/05 06:59:15;;;;;;;20.10;12.40;;;;;;;15.87;50.65;100254.19;1694601;84;20993;-44
2022/09/05 07:02:03;;;;;;;38.38;23.02;;;;;;;15.90;50.45;100252.06;1693286;84;21072;-44
2022/09/05 07:04:36;;;;;;;47.27;28.90;;;;;;;15.90;50.40;100264.37;1649043;84;21328;-44
2022/09/05 07:07:12;;;;;;;88.42;54.33;;;;;;;15.87;50.16;100267.28;1694478;84;21505;-44
2022/09/05 07:10:02;;;;;;;97.00;56.28;;;;;;;15.77;50.23;100261.10;1695005;84;21057;-44
2022/09/05 07:12:33;;;;;;;102.58;65.25;;;;;;;15.69;50.60;100264.89;1694965;84;21571;-44
2022/09/05 07:15:15;;;;;;;131.32;84.03;;;;;;;15.61;50.96;100267.33;1694866;84;21886;-44
2022/09/05 07:17:50;;;;;;;135.43;86.30;;;;;;;15.57;51.18;100266.50;1694748;84;21219;-44
2022/09/05 07:20:34;;;;;;;148.62;89.60;;;;;;;15.52;51.85;100266.83;1694735;84;21017;-44
2022/09/05 07:23:16;;;;;;;139.72;88.35;;;;;;;15.49;51.77;100267.55;1694544;84;21076;-44
2022/09/05 07:25:46;;;;;;;152.68;92.50;;;;;;;15.46;52.07;100270.42;1692084;84;21546;-44
2022/09/05 07:28:13;;;;;;;152.27;93.27;;;;;;;15.45;51.98;100268.05;1694388;83;21076;-44
2022/09/05 07:30:47;;;;;;;155.85;97.33;;;;;;;15.45;52.08;100272.15;1694463;84;21122;-44
2022/09/05 07:33:25;;;;;;;166.07;101.80;;;;;;;15.45;52.43;100282.50;1693257;84;21603;-44
2022/09/05 07:35:52;;;;;;;169.80;108.03;;;;;;;15.45;52.35;100266.69;1694469;84;21121;-44
2022/09/05 07:38:27;;;;;;;177.90;110.63;;;;;;;15.49;52.73;100268.91;1694399;84;21032;-44
2022/09/05 07:41:05;;;;;;;180.93;117.65;;;;;;;15.51;53.53;100269.34;1694600;84;21088;-44
2022/09/05 07:43:38;;;;;;;168.17;106.97;;;;;;;15.51;54.02;100266.61;1694446;83;21611;-44
2022/09/05 07:46:19;;;;;;;169.85;103.10;;;;;;;15.51;53.89;100263.87;1694593;84;21338;-44
2022/09/05 07:48:49;;;;;;;157.90;97.67;;;;;;;15.50;55.20;100226.73;1694734;84;21064;-44
2022/09/05 07:51:35;;;;;;;149.47;90.05;;;;;;;15.52;56.14;100227.20;1693673;84;21108;-44
2022/09/05 07:54:09;;;;;;;125.85;83.50;;;;;;;15.53;56.59;100226.05;1664827;84;21083;-44
2022/09/05 07:56:47;;;;;;;121.87;77.58;;;;;;;15.57;56.98;100239.17;1687272;84;21128;-44
2022/09/05 07:59:15;;;;;;;114.50;70.75;;;;;;;15.61;57.63;100238.62;1694498;84;20985;-44
2022/09/05 08:01:44;;;;;;;117.15;71.75;;;;;;;15.72;58.01;100235.45;1694585;84;21120;-44
2022/09/05 08:04:24;;;;;;;117.80;72.82;;;;;;;15.83;58.41;100236.95;1694702;84;21551;-44
2022/09/05 08:06:53;;;;;;;113.80;70.52;;;;;;;15.96;58.32;100234.95;1694575;84;21116;-44
2022/09/05 08:09:32;;;;;;;99.50;62.83;;;;;;;16.13;58.33;100238.23;1695117;84;22139;-44
2022/09/05 08:12:02;;;;;;;100.67;60.95;;;;;;;16.35;57.81;100238.09;1694855;84;21520;-44
2022/09/05 08:14:44;;;;;;;93.27;55.50;;;;;;;16.62;57.90;100242.06;1665261;84;21110;-44
2022/09/05 08:17:20;;;;;;;89.45;55.58;;;;;;;16.85;57.34;100233.05;1694838;84;21001;-44
2022/09/05 08:20:23;;;;;;;87.35;52.62;;;;;;;17.13;56.58;100236.01;1694985;84;21021;-44
2022/09/05 08:22:58;;;;;;;70.60;48.13;;;;;;;17.36;56.16;100239.85;1694789;84;22126;-44
2022/09/05 08:25:36;;;;;;;67.95;43.40;;;;;;;17.55;56.55;100240.92;1694823;84;21001;-44
2022/09/05 08:28:31;;;;;;;66.22;42.20;;;;;;;17.68;56.14;100236.70;1666159;83;21123;-45
2022/09/05 08:31:13;;;;;;;61.23;38.45;;;;;;;17.89;55.66;100243.44;1684503;85;21065;-44
2022/09/05 08:33:42;;;;;;;60.28;38.35;;;;;;;18.03;54.65;100244.27;1709284;83;21084;-44
2022/09/05 08:36:20;;;;;;;62.62;40.28;;;;;;;18.17;54.05;100231.95;1699901;84;21136;-44
2022/09/05 08:38:49;;;;;;;62.93;38.28;;;;;;;18.33;53.16;100235.70;1697746;83;20984;-44
2022/09/05 08:41:54;;;;;;;64.12;39.42;;;;;;;18.45;53.14;100233.94;1700189;84;21081;-44
2022/09/05 08:45:00;;;;;;;62.05;39.40;;;;;;;18.54;53.51;100235.73;1709843;83;21581;-44
2022/09/05 08:48:15;;;;;;;50.52;33.15;;;;;;;18.56;51.89;100240.27;1700111;84;21037;-44
2022/09/05 08:50:54;;;;;;;50.03;32.42;;;;;;;18.57;51.06;100232.81;1709975;83;21127;-44
2022/09/05 08:53:57;;;;;;;49.63;33.13;;;;;;;18.62;50.18;100230.47;1699946;84;21599;-44
2022/09/05 08:56:37;;;;;;;55.55;34.83;;;;;;;18.82;50.79;100228.69;1709794;83;21526;-44
2022/09/05 08:59:27;;;;;;;47.43;31.70;;;;;;;18.98;50.28;100222.97;1652789;84;22020;-44
2022/09/05 09:02:08;;;;;;;48.95;32.67;;;;;;;19.04;48.33;100220.02;1709900;83;21017;-44
2022/09/05 09:04:54;;;;;;;44.40;29.82;;;;;;;19.03;48.13;100219.03;1679568;85;23113;-44
2022/09/05 09:07:35;;;;;;;44.23;28.07;;;;;;;18.96;47.60;100213.56;1700098;84;21087;-44
2022/09/05 09:10:16;;;;;;;41.80;28.38;;;;;;;18.83;47.11;100213.78;1710105;83;21066;-44
2022/09/05 09:13:27;;;;;;;42.15;27.13;;;;;;;18.82;47.90;100212.21;1700066;84;21106;-44
2022/09/05 09:16:17;;;;;;;43.50;30.90;;;;;;;18.84;47.37;100210.63;1709960;83;21040;-44
2022/09/05 09:18:52;;;;;;;46.58;29.75;;;;;;;18.80;47.98;100206.31;1649373;84;23144;-44
2022/09/05 09:21:55;;;;;;;41.20;27.42;;;;;;;18.77;47.84;100202.41;1635698;87;21017;-43
2022/09/05 09:25:00;;;;;;;42.20;25.55;;;;;;;18.85;48.70;100201.80;1609370;88;21574;-44
2022/09/05 09:27:52;;;;;;;37.85;26.05;;;;;;;18.96;49.00;100197.08;1636278;87;21553;-44
2022/09/05 09:30:20;;;;;;;39.23;26.27;;;;;;;19.04;47.84;100202.75;1642059;86;21030;-44
2022/09/05 09:32:49;;;;;;;33.38;22.50;;;;;;;19.09;47.36;100203.13;1707770;83;21492;-44
2022/09/05 09:35:23;;;;;;;27.50;18.92;;;;;;;19.16;47.39;100200.97;1707430;83;21004;-44
2022/09/05 09:38:21;;;;;;;28.65;18.77;;;;;;;19.23;47.18;100197.39;1707615;84;21777;-44
2022/09/05 09:41:14;;;;;;;22.90;15.43;;;;;;;19.30;47.30;100192.67;1690436;84;20976;-44
2022/09/05 09:44:17;;;;;;;20.57;13.53;;;;;;;19.43;47.27;100187.52;1707119;83;21126;-44
2022/09/05 09:46:45;;;;;;;21.70;14.13;;;;;;;19.49;46.73;100185.36;1707341;84;22170;-44
2022/09/05 09:49:41;;;;;;;20.68;13.78;;;;;;;19.47;44.56;100187.72;1739327;82;21013;-44
2022/09/05 09:52:46;;;;;;;22.45;15.10;;;;;;;19.36;45.16;100185.59;1742833;81;21029;-44
2022/09/05 09:55:57;;;;;;;22.58;13.75;;;;;;;19.34;46.13;100170.07;1742955;82;21464;-44
2022/09/05 09:58:50;;;;;;;22.00;13.48;;;;;;;19.51;45.76;100171.98;1742583;81;21498;-44
2022/09/05 10:01:53;;;;;;;21.05;13.93;;;;;;;19.88;45.24;100171.41;1726691;81;21089;-44
2022/09/05 10:04:57;;;;;;;20.25;13.30;;;;;;;20.37;44.49;100157.92;1742894;82;20942;-44
2022/09/05 10:07:42;;;;;;;19.62;11.97;;;;;;;20.95;43.75;100150.69;1742759;82;21029;-41
2022/09/05 10:10:42;;;;;;;17.80;11.55;;;;;;;21.46;42.25;100146.16;1742281;82;21037;-44
2022/09/05 10:13:34;;;;;;;;;;;;;;;21.86;41.26;100143.84;1740841;82;20985;-45
2022/09/05 10:16:34;;;;;;;12.93;8.85;;;;;;;22.10;41.09;100147.45;1743105;82;23205;-45
2022/09/05 10:19:43;;;;;;;15.93;7.92;;;;;;;22.08;39.26;100140.95;1743213;81;21001;-45
2022/09/05 10:22:33;;;;;;;8.50;6.33;;;;;;;21.97;38.45;100150.62;1743067;82;20985;-45
2022/09/05 10:25:39;;;;;;;14.28;7.53;;;;;;;21.74;39.57;100144.98;1743030;81;21010;-44
2022/09/05 10:28:13;;;;;;;12.23;8.03;;;;;;;21.56;40.03;100145.23;1742881;82;21033;-45
2022/09/05 10:30:54;;;;;;;9.73;6.83;;;;;;;21.35;39.38;100144.16;1743056;82;21136;-45
2022/09/05 10:33:41;;;;;;;13.62;7.55;;;;;;;21.09;40.08;100153.28;1742529;81;21530;-45
2022/09/05 10:36:26;;;;;;;11.22;7.95;;;;;;;20.84;40.27;100147.24;1742856;81;21033;-45
2022/09/05 10:39:02;;;;;;;9.70;6.78;;;;;;;20.63;40.57;100144.09;1742360;81;21065;-45
2022/09/05 10:41:49;;;;;;;9.73;5.72;;;;;;;20.58;40.74;100141.00;1743083;82;21073;-45
2022/09/05 10:44:30;;;;;;;11.90;5.75;;;;;;;20.71;39.92;100136.56;1742915;82;21243;-45
2022/09/05 10:47:31;;;;;;;8.38;5.42;;;;;;;20.95;39.37;100141.63;1742965;82;20926;-45
2022/09/05 10:50:32;;;;;;;11.60;5.50;;;;;;;21.27;38.75;100139.90;1743075;82;21041;-44
2022/09/05 10:53:07;;;;;;;9.15;5.00;;;;;;;21.43;37.07;100134.58;1742880;82;21046;-44
2022/09/05 10:56:01;;;;;;;8.43;4.50;;;;;;;21.40;36.65;100131.25;1743005;81;21045;-45
2022/09/05 10:58:50;;;;;;;7.20;4.70;;;;;;;21.43;36.15;100129.06;1742977;82;23260;-45
2022/09/05 11:01:46;;;;;;;8.50;5.00;;;;;;;21.58;37.01;100128.47;1742673;81;20977;-45
2022/09/05 11:04:39;;;;;;;7.53;4.80;;;;;;;22.00;36.50;100121.56;1742683;81;21001;-44
2022/09/05 11:07:20;;;;;;;9.50;5.60;;;;;;;22.49;35.44;100106.75;1742606;81;21100;-45
2022/09/05 11:10:10;;;;;;;7.60;5.05;;;;;;;22.96;34.93;100116.55;1742520;81;21540;-45
2022/09/05 11:12:50;;;;;;;7.58;5.37;;;;;;;23.21;33.63;100105.59;1742909;82;21217;-45
2022/09/05 11:15:31;;;;;;;14.15;9.03;;;;;;;23.35;32.87;100112.20;1742633;82;21535;-45
2022/09/05 11:18:11;;;;;;;17.02;10.82;;;;;;;23.49;32.92;100107.77;1742928;82;20949;-45
2022/09/05 11:20:48;;;;;;;17.98;11.95;;;;;;;23.52;30.77;100113.86;1743237;81;21030;-45
2022/09/05 11:23:43;;;;;;;19.90;13.05;;;;;;;23.23;31.04;100108.12;1742909;82;21017;-45
2022/09/05 11:26:45;;;;;;;24.85;16.30;;;;;;;22.79;31.42;100107.22;1742826;82;21235;-45
2022/09/05 11:29:17;;;;;;;38.67;24.77;;;;;;;22.34;33.17;100109.58;1745152;81;21024;-45
2022/09/05 11:32:15;;;;;;;41.85;27.90;;;;;;;21.95;33.31;100108.23;1756466;81;21476;-45
2022/09/05 11:35:10;;;;;;;44.63;28.23;;;;;;;21.72;33.38;100110.92;1756317;81;21068;-45
2022/09/05 11:38:02;;;;;;;41.53;26.25;;;;;;;21.39;33.33;100110.41;1756456;81;21033;-45
2022/09/05 11:40:45;;;;;;;43.38;27.98;;;;;;;21.17;34.24;100106.52;1756494;81;21239;-45
2022/09/05 11:43:40;;;;;;;41.70;27.70;;;;;;;21.03;34.80;100108.05;1756390;81;21006;-45
2022/09/05 11:46:21;;;;;;;45.70;28.67;;;;;;;21.05;35.43;100103.51;1756259;81;21035;-45
2022/09/05 11:49:11;;;;;;;50.58;30.35;;;;;;;21.17;34.79;100106.52;1756525;81;21024;-45
2022/09/05 11:52:23;;;;;;;41.60;28.90;;;;;;;21.41;34.19;100099.72;1756715;81;21041;-45
2022/09/05 11:55:08;;;;;;;44.73;27.87;;;;;;;21.80;33.88;100090.29;1756465;81;21199;-45
2022/09/05 11:57:48;;;;;;;45.65;28.17;;;;;;;22.49;32.29;100081.88;1756323;81;21068;-45
2022/09/05 12:00:38;;;;;;;41.88;27.13;;;;;;;23.12;31.59;100077.72;1756309;81;20922;-45
2022/09/05 12:03:51;;;;;;;39.67;25.82;;;;;;;23.55;30.54;100081.75;1756284;81;21477;-45
2022/09/05 12:06:38;;;;;;;39.65;24.43;;;;;;;23.66;29.77;100094.16;1756300;81;21041;-45
2022/09/05 12:09:31;;;;;;;38.80;25.23;;;;;;;23.36;29.85;100088.27;1756287;81;21129;-45
2022/09/05 12:12:25;;;;;;;39.15;25.95;;;;;;;23.23;30.12;100086.59;1756061;81;21028;-45
2022/09/05 12:15:19;;;;;;;41.90;28.12;;;;;;;23.29;29.79;100086.23;1756130;81;21112;-45
2022/09/05 12:18:18;;;;;;;38.65;26.90;;;;;;;23.36;29.13;100085.50;1756397;81;21520;-45
2022/09/05 12:21:23;;;;;;;40.73;26.48;;;;;;;23.14;29.29;100082.23;1756382;81;21084;-45
2022/09/05 12:23:59;;;;;;;38.90;26.55;;;;;;;22.84;29.88;100075.72;1756427;81;21259;-45
2022/09/05 12:26:56;;;;;;;40.60;28.62;;;;;;;22.99;30.17;100073.45;1756235;81;21072;-45
2022/09/05 12:29:24;;;;;;;36.25;24.10;;;;;;;23.47;29.54;100070.08;1756152;81;20997;-45
2022/09/05 12:31:53;;;;;;;42.78;27.50;;;;;;;24.23;28.94;100067.87;1756408;81;21083;-45
2022/09/05 12:34:50;;;;;;;42.15;27.35;;;;;;;24.95;27.58;100064.77;1756677;81;21029;-45
2022/09/05 12:37:28;;;;;;;35.13;22.77;;;;;;;25.45;26.19;100058.52;1756542;81;21237;-45
2022/09/05 12:40:08;;;;;;;32.05;20.68;;;;;;;25.79;25.31;100067.61;1756559;81;20960;-45
2022/09/05 12:42:54;;;;;;;27.93;20.97;;;;;;;25.96;25.49;100067.63;1753837;81;21048;-45
2022/09/05 12:45:59;;;;;;;33.20;21.12;;;;;;;25.96;24.81;100062.07;1756750;81;21024;-45
2022/09/05 12:48:37;;;;;;;32.42;19.60;;;;;;;25.78;24.49;100066.82;1751814;81;21048;-45
2022/09/05 12:51:18;;;;;;;26.85;19.23;;;;;;;25.34;25.37;100064.40;1756500;81;21317;-45